Wetterdaten: Woche 03.03.14 - 09.03.14 (KW10)
Datum Zeit Temperatur Luftfeuchte Luftdruck Niederschlag Windrichtung Sonnenschein Solar Wind
03.03.2014 00:00 -0,2 C 95 % 997,0 hPa 0,0 l/m N 0,00 h 0 W/m 0,4 km/h (0 Bft)
03.03.2014 01:00 -0,6 C 95 % 996,1 hPa 0,0 l/m N 0,00 h 0 W/m 1,6 km/h (1 Bft)
03.03.2014 02:00 -0,9 C 96 % 995,3 hPa 0,0 l/m N 0,00 h 0 W/m 0,7 km/h (0 Bft)
03.03.2014 03:00 -1,2 C 96 % 994,4 hPa 0,0 l/m N 0,00 h 0 W/m 0,4 km/h (0 Bft)
03.03.2014 04:00 -1,7 C 96 % 993,7 hPa 0,0 l/m N 0,00 h 0 W/m 0,0 km/h (0 Bft)
03.03.2014 05:00 -1,7 C 97 % 993,9 hPa 0,0 l/m N-NO 0,00 h 0 W/m 5,4 km/h (1 Bft)
03.03.2014 06:00 -1,4 C 97 % 993,8 hPa 0,0 l/m N 0,00 h 0 W/m 0,8 km/h (0 Bft)
03.03.2014 07:00 -1,3 C 98 % 994,4 hPa 0,0 l/m N-NW 0,00 h 18 W/m 3,5 km/h (1 Bft)
03.03.2014 08:00 -0,8 C 98 % 995,0 hPa 0,0 l/m W-SW 0,00 h 41 W/m 7,2 km/h (2 Bft)
03.03.2014 09:00 0,0 C 98 % 995,1 hPa 0,0 l/m SW 0,00 h 79 W/m 7,0 km/h (2 Bft)
03.03.2014 10:00 1,7 C 99 % 995,1 hPa 0,0 l/m SW 0,08 h 178 W/m 7,9 km/h (2 Bft)
03.03.2014 11:00 4,0 C 96 % 995,0 hPa 0,0 l/m S-SW 0,17 h 248 W/m 13,1 km/h (3 Bft)
03.03.2014 12:00 6,0 C 89 % 994,7 hPa 0,0 l/m SW 0,17 h 229 W/m 16,9 km/h (3 Bft)
03.03.2014 13:00 7,1 C 81 % 994,2 hPa 0,0 l/m SW 0,17 h 264 W/m 21,0 km/h (4 Bft)
03.03.2014 14:00 7,7 C 76 % 994,3 hPa 0,0 l/m W-SW 0,42 h 376 W/m 20,2 km/h (4 Bft)
03.03.2014 15:00 6,8 C 79 % 994,5 hPa 0,0 l/m SW 0,50 h 248 W/m 20,6 km/h (4 Bft)
03.03.2014 16:00 6,2 C 79 % 994,5 hPa 0,0 l/m W-SW 0,00 h 79 W/m 17,7 km/h (3 Bft)
03.03.2014 17:00 5,2 C 83 % 994,8 hPa 0,0 l/m SW 0,00 h 24 W/m 11,9 km/h (2 Bft)
03.03.2014 18:00 4,6 C 85 % 995,1 hPa 0,0 l/m W-SW 0,00 h 0 W/m 7,8 km/h (2 Bft)
03.03.2014 19:00 4,1 C 88 % 995,6 hPa 0,0 l/m W-SW 0,00 h 0 W/m 5,3 km/h (1 Bft)
03.03.2014 20:00 3,9 C 89 % 995,5 hPa 0,0 l/m W-SW 0,00 h 0 W/m 2,5 km/h (1 Bft)
03.03.2014 21:00 3,3 C 89 % 995,6 hPa 0,0 l/m W-SW 0,00 h 0 W/m 3,9 km/h (1 Bft)
03.03.2014 22:00 3,1 C 89 % 995,7 hPa 0,0 l/m N 0,00 h 0 W/m 0,1 km/h (0 Bft)
03.03.2014 23:00 2,7 C 92 % 995,6 hPa 0,0 l/m N 0,00 h 0 W/m 0,3 km/h (0 Bft)
04.03.2014 00:00 2,6 C 93 % 995,3 hPa 0,0 l/m N 0,00 h 0 W/m 1,3 km/h (1 Bft)
04.03.2014 01:00 2,6 C 94 % 995,6 hPa 0,0 l/m N 0,00 h 0 W/m 0,7 km/h (0 Bft)
04.03.2014 02:00 2,6 C 94 % 995,8 hPa 0,0 l/m N 0,00 h 0 W/m 0,5 km/h (0 Bft)
04.03.2014 03:00 2,7 C 94 % 995,7 hPa 0,0 l/m N 0,00 h 0 W/m 1,2 km/h (1 Bft)
04.03.2014 04:00 2,7 C 94 % 996,2 hPa 0,0 l/m W-SW 0,00 h 0 W/m 1,5 km/h (1 Bft)
04.03.2014 05:00 2,7 C 95 % 996,6 hPa 0,4 l/m N 0,00 h 0 W/m 0,3 km/h (0 Bft)
04.03.2014 06:00 2,6 C 95 % 997,1 hPa 0,6 l/m N 0,00 h 0 W/m 0,1 km/h (0 Bft)
04.03.2014 07:00 2,2 C 95 % 997,8 hPa 0,6 l/m N 0,00 h 11 W/m 0,9 km/h (0 Bft)
04.03.2014 08:00 2,2 C 96 % 998,9 hPa 0,0 l/m N 0,00 h 20 W/m 0,0 km/h (0 Bft)
04.03.2014 09:00 2,5 C 97 % 999,6 hPa 0,2 l/m N 0,00 h 36 W/m 0,8 km/h (0 Bft)
04.03.2014 10:00 3,4 C 97 % 1000,2 hPa 0,0 l/m W-SW 0,00 h 90 W/m 5,1 km/h (1 Bft)
04.03.2014 11:00 3,8 C 97 % 1000,8 hPa 0,0 l/m W-SW 0,00 h 104 W/m 5,5 km/h (1 Bft)
04.03.2014 12:00 4,2 C 96 % 1001,1 hPa 0,0 l/m S-SW 0,00 h 138 W/m 11,3 km/h (2 Bft)
04.03.2014 13:00 4,2 C 96 % 1001,5 hPa 0,0 l/m S-SW 0,00 h 135 W/m 12,9 km/h (3 Bft)
04.03.2014 14:00 4,2 C 95 % 1001,9 hPa 0,0 l/m S-SW 0,00 h 108 W/m 13,2 km/h (3 Bft)
04.03.2014 15:00 4,0 C 95 % 1002,8 hPa 0,0 l/m S-SW 0,00 h 27 W/m 9,4 km/h (2 Bft)
04.03.2014 16:00 3,7 C 96 % 1003,7 hPa 0,0 l/m S-SW 0,00 h 16 W/m 7,2 km/h (2 Bft)
04.03.2014 17:00 3,4 C 97 % 1004,4 hPa 1,2 l/m SW 0,00 h 7 W/m 11,0 km/h (2 Bft)
04.03.2014 18:00 3,2 C 97 % 1005,1 hPa 0,4 l/m S-SW 0,00 h 0 W/m 9,8 km/h (2 Bft)
04.03.2014 19:00 3,1 C 97 % 1006,2 hPa 0,2 l/m S-SW 0,00 h 0 W/m 7,2 km/h (2 Bft)
04.03.2014 20:00 3,1 C 98 % 1006,9 hPa 0,0 l/m SW 0,00 h 0 W/m 8,6 km/h (2 Bft)
04.03.2014 21:00 3,1 C 98 % 1007,7 hPa 0,0 l/m SW 0,00 h 0 W/m 5,3 km/h (1 Bft)
04.03.2014 22:00 3,1 C 98 % 1008,1 hPa 0,0 l/m SW 0,00 h 0 W/m 3,5 km/h (1 Bft)
04.03.2014 23:00 3,0 C 98 % 1008,5 hPa 0,0 l/m SW 0,00 h 0 W/m 6,1 km/h (2 Bft)
05.03.2014 00:00 2,8 C 98 % 1008,9 hPa 0,0 l/m SW 0,00 h 0 W/m 8,0 km/h (2 Bft)
05.03.2014 01:00 2,8 C 98 % 1009,3 hPa 0,0 l/m SW 0,00 h 0 W/m 4,7 km/h (1 Bft)
05.03.2014 02:00 2,7 C 98 % 1010,0 hPa 0,0 l/m SW 0,00 h 0 W/m 6,0 km/h (2 Bft)
05.03.2014 03:00 2,7 C 98 % 1010,5 hPa 0,0 l/m SW 0,00 h 0 W/m 7,2 km/h (2 Bft)
05.03.2014 04:00 2,4 C 99 % 1011,2 hPa 0,0 l/m SW 0,00 h 0 W/m 4,0 km/h (1 Bft)
05.03.2014 05:00 2,3 C 98 % 1011,7 hPa 0,0 l/m SW 0,00 h 0 W/m 2,3 km/h (1 Bft)
05.03.2014 06:00 2,2 C 99 % 1012,5 hPa 0,0 l/m N 0,00 h 0 W/m 1,6 km/h (1 Bft)
05.03.2014 07:00 2,2 C 99 % 1013,4 hPa 0,0 l/m SW 0,00 h 11 W/m 1,6 km/h (1 Bft)
05.03.2014 08:00 2,4 C 99 % 1014,6 hPa 0,0 l/m SW 0,00 h 47 W/m 1,9 km/h (1 Bft)
05.03.2014 09:00 3,3 C 99 % 1015,3 hPa 0,0 l/m SW 0,25 h 202 W/m 5,2 km/h (1 Bft)
05.03.2014 10:00 4,4 C 96 % 1016,0 hPa 0,0 l/m SW 0,00 h 159 W/m 4,8 km/h (1 Bft)
05.03.2014 11:00 5,4 C 93 % 1016,3 hPa 0,0 l/m SW 0,33 h 310 W/m 5,5 km/h (1 Bft)
05.03.2014 12:00 7,0 C 89 % 1016,6 hPa 0,0 l/m SW 0,42 h 335 W/m 6,3 km/h (2 Bft)
05.03.2014 13:00 7,2 C 87 % 1016,9 hPa 0,0 l/m SW 0,00 h 34 W/m 3,5 km/h (1 Bft)
05.03.2014 14:00 6,1 C 88 % 1017,5 hPa 0,0 l/m O 0,00 h 55 W/m 9,2 km/h (2 Bft)
05.03.2014 15:00 5,7 C 86 % 1017,8 hPa 0,2 l/m N 0,00 h 72 W/m 2,5 km/h (1 Bft)
05.03.2014 16:00 6,4 C 82 % 1018,1 hPa 0,0 l/m N 0,00 h 90 W/m 0,3 km/h (0 Bft)
05.03.2014 17:00 6,5 C 83 % 1019,0 hPa 0,0 l/m O-SO 0,08 h 34 W/m 0,8 km/h (0 Bft)
05.03.2014 18:00 5,5 C 91 % 1020,0 hPa 0,6 l/m N 0,00 h 5 W/m 2,8 km/h (1 Bft)
05.03.2014 19:00 4,1 C 94 % 1020,8 hPa 0,4 l/m O 0,00 h 0 W/m 3,6 km/h (1 Bft)
05.03.2014 20:00 4,0 C 93 % 1021,6 hPa 0,0 l/m N-NO 0,00 h 0 W/m 9,7 km/h (2 Bft)
05.03.2014 21:00 4,1 C 90 % 1022,0 hPa 0,0 l/m N 0,00 h 0 W/m 5,9 km/h (2 Bft)
05.03.2014 22:00 4,1 C 89 % 1022,6 hPa 0,0 l/m N 0,00 h 0 W/m 4,7 km/h (1 Bft)
05.03.2014 23:00 3,7 C 91 % 1023,1 hPa 0,0 l/m N 0,00 h 0 W/m 4,3 km/h (1 Bft)
06.03.2014 00:00 2,9 C 91 % 1023,4 hPa 0,0 l/m N 0,00 h 0 W/m 3,9 km/h (1 Bft)
06.03.2014 01:00 1,9 C 93 % 1023,8 hPa 0,0 l/m N 0,00 h 0 W/m 5,6 km/h (1 Bft)
06.03.2014 02:00 1,3 C 94 % 1024,1 hPa 0,0 l/m N 0,00 h 0 W/m 5,5 km/h (1 Bft)
06.03.2014 03:00 0,9 C 95 % 1024,3 hPa 0,0 l/m N 0,00 h 0 W/m 5,7 km/h (1 Bft)
06.03.2014 04:00 0,6 C 95 % 1024,9 hPa 0,0 l/m N 0,00 h 0 W/m 3,7 km/h (1 Bft)
06.03.2014 05:00 0,1 C 95 % 1025,4 hPa 0,0 l/m N 0,00 h 0 W/m 4,1 km/h (1 Bft)
06.03.2014 06:00 -0,1 C 96 % 1025,7 hPa 0,0 l/m N 0,00 h 5 W/m 3,3 km/h (1 Bft)
06.03.2014 07:00 -0,0 C 96 % 1026,3 hPa 0,0 l/m N 0,00 h 31 W/m 4,0 km/h (1 Bft)
06.03.2014 08:00 1,0 C 98 % 1027,1 hPa 0,2 l/m N-NO 0,25 h 132 W/m 6,5 km/h (2 Bft)
06.03.2014 09:00 3,2 C 95 % 1027,6 hPa 0,0 l/m NO 1,00 h 286 W/m 10,8 km/h (2 Bft)
06.03.2014 10:00 5,2 C 87 % 1027,5 hPa 0,0 l/m O-NO 1,00 h 423 W/m 15,6 km/h (3 Bft)
06.03.2014 11:00 6,6 C 79 % 1027,1 hPa 0,0 l/m NO 1,00 h 521 W/m 17,8 km/h (3 Bft)
06.03.2014 12:00 7,6 C 73 % 1027,0 hPa 0,0 l/m NO 0,42 h 374 W/m 18,6 km/h (3 Bft)
06.03.2014 13:00 8,3 C 68 % 1026,4 hPa 0,0 l/m O 0,58 h 442 W/m 22,0 km/h (4 Bft)
06.03.2014 14:00 8,3 C 66 % 1026,1 hPa 0,0 l/m NO 0,42 h 332 W/m 20,1 km/h (4 Bft)
06.03.2014 15:00 8,7 C 63 % 1025,9 hPa 0,0 l/m O-NO 0,83 h 306 W/m 18,0 km/h (3 Bft)
06.03.2014 16:00 8,3 C 64 % 1026,0 hPa 0,0 l/m O 0,67 h 159 W/m 17,8 km/h (3 Bft)
06.03.2014 17:00 7,6 C 68 % 1026,1 hPa 0,0 l/m O-NO 0,17 h 54 W/m 13,6 km/h (3 Bft)
06.03.2014 18:00 6,4 C 73 % 1026,3 hPa 0,0 l/m O-NO 0,00 h 7 W/m 7,6 km/h (2 Bft)
06.03.2014 19:00 5,2 C 78 % 1026,3 hPa 0,0 l/m O-NO 0,00 h 0 W/m 5,3 km/h (1 Bft)
06.03.2014 20:00 4,1 C 83 % 1026,3 hPa 0,0 l/m O-NO 0,00 h 0 W/m 4,3 km/h (1 Bft)
06.03.2014 21:00 3,1 C 87 % 1026,1 hPa 0,0 l/m O-NO 0,00 h 0 W/m 3,9 km/h (1 Bft)
06.03.2014 22:00 2,9 C 87 % 1026,1 hPa 0,0 l/m N 0,00 h 0 W/m 4,1 km/h (1 Bft)
06.03.2014 23:00 2,3 C 89 % 1025,8 hPa 0,0 l/m N 0,00 h 0 W/m 3,2 km/h (1 Bft)
07.03.2014 00:00 1,4 C 92 % 1025,4 hPa 0,0 l/m O-NO 0,00 h 0 W/m 2,0 km/h (1 Bft)
07.03.2014 01:00 0,8 C 94 % 1025,2 hPa 0,0 l/m N 0,00 h 0 W/m 3,1 km/h (1 Bft)
07.03.2014 02:00 0,7 C 95 % 1024,7 hPa 0,0 l/m NO 0,00 h 0 W/m 5,1 km/h (1 Bft)
07.03.2014 03:00 0,7 C 94 % 1024,5 hPa 0,0 l/m N-NO 0,00 h 0 W/m 7,8 km/h (2 Bft)
07.03.2014 04:00 0,1 C 95 % 1024,5 hPa 0,0 l/m N 0,00 h 0 W/m 2,8 km/h (1 Bft)
07.03.2014 05:00 -0,1 C 96 % 1024,8 hPa 0,0 l/m N-NO 0,00 h 0 W/m 4,4 km/h (1 Bft)
07.03.2014 06:00 -0,3 C 96 % 1025,1 hPa 0,0 l/m N 0,00 h 5 W/m 2,7 km/h (1 Bft)
07.03.2014 07:00 -0,7 C 96 % 1025,6 hPa 0,0 l/m N-NO 0,00 h 21 W/m 0,5 km/h (0 Bft)
07.03.2014 08:00 -0,1 C 97 % 1026,1 hPa 0,0 l/m N-NO 0,00 h 48 W/m 3,3 km/h (1 Bft)
07.03.2014 09:00 0,8 C 97 % 1026,0 hPa 0,0 l/m N-NO 0,00 h 78 W/m 5,5 km/h (1 Bft)
07.03.2014 10:00 1,5 C 97 % 1026,1 hPa 0,0 l/m O-SO 0,00 h 103 W/m 3,7 km/h (1 Bft)
07.03.2014 11:00 2,3 C 96 % 1026,3 hPa 0,0 l/m O 0,00 h 143 W/m 4,7 km/h (1 Bft)
07.03.2014 12:00 3,8 C 91 % 1026,0 hPa 0,0 l/m NO 0,67 h 414 W/m 4,5 km/h (1 Bft)
07.03.2014 13:00 6,7 C 83 % 1025,4 hPa 0,0 l/m O-NO 1,00 h 568 W/m 7,5 km/h (2 Bft)
07.03.2014 14:00 9,0 C 76 % 1024,8 hPa 0,0 l/m S-SW 1,00 h 495 W/m 8,4 km/h (2 Bft)
07.03.2014 15:00 9,9 C 72 % 1024,7 hPa 0,0 l/m S-SW 1,00 h 361 W/m 5,2 km/h (1 Bft)
07.03.2014 16:00 10,1 C 71 % 1024,7 hPa 0,0 l/m S-SW 1,00 h 223 W/m 3,6 km/h (1 Bft)
07.03.2014 17:00 9,4 C 74 % 1024,8 hPa 0,0 l/m S-SW 0,42 h 61 W/m 2,7 km/h (1 Bft)
07.03.2014 18:00 6,5 C 85 % 1025,5 hPa 0,0 l/m S-SW 0,00 h 6 W/m 0,0 km/h (0 Bft)
07.03.2014 19:00 4,4 C 91 % 1026,1 hPa 0,0 l/m N 0,00 h 0 W/m 0,4 km/h (0 Bft)
07.03.2014 20:00 3,2 C 93 % 1026,2 hPa 0,0 l/m N 0,00 h 0 W/m 0,4 km/h (0 Bft)
07.03.2014 21:00 2,3 C 95 % 1026,1 hPa 0,0 l/m N 0,00 h 0 W/m 0,0 km/h (0 Bft)
07.03.2014 22:00 1,5 C 96 % 1026,1 hPa 0,0 l/m N 0,00 h 0 W/m 0,1 km/h (0 Bft)
07.03.2014 23:00 1,4 C 97 % 1026,8 hPa 0,0 l/m N 0,00 h 0 W/m 0,4 km/h (0 Bft)
08.03.2014 00:00 2,3 C 97 % 1027,6 hPa 0,0 l/m S-SW 0,00 h 0 W/m 1,2 km/h (1 Bft)
08.03.2014 01:00 2,0 C 96 % 1028,1 hPa 0,0 l/m N 0,00 h 0 W/m 0,4 km/h (0 Bft)
08.03.2014 02:00 1,5 C 96 % 1028,5 hPa 0,0 l/m N 0,00 h 0 W/m 0,5 km/h (0 Bft)
08.03.2014 03:00 0,7 C 97 % 1028,6 hPa 0,0 l/m N 0,00 h 0 W/m 0,0 km/h (0 Bft)
08.03.2014 04:00 -0,2 C 97 % 1029,0 hPa 0,0 l/m N 0,00 h 0 W/m 0,3 km/h (0 Bft)
08.03.2014 05:00 -0,5 C 97 % 1029,7 hPa 0,0 l/m N 0,00 h 0 W/m 0,3 km/h (0 Bft)
08.03.2014 06:00 -0,6 C 98 % 1030,1 hPa 0,0 l/m SW 0,00 h 5 W/m 1,2 km/h (1 Bft)
08.03.2014 07:00 0,4 C 98 % 1031,0 hPa 0,0 l/m SW 0,00 h 38 W/m 3,3 km/h (1 Bft)
08.03.2014 08:00 2,3 C 98 % 1031,8 hPa 0,0 l/m W-SW 0,50 h 151 W/m 4,9 km/h (1 Bft)
08.03.2014 09:00 4,9 C 92 % 1032,1 hPa 0,0 l/m N-NO 1,00 h 310 W/m 8,2 km/h (2 Bft)
08.03.2014 10:00 7,8 C 80 % 1031,7 hPa 0,0 l/m O-NO 1,00 h 435 W/m 11,7 km/h (2 Bft)
08.03.2014 11:00 9,9 C 69 % 1031,5 hPa 0,0 l/m O-NO 1,00 h 557 W/m 15,6 km/h (3 Bft)
08.03.2014 12:00 11,1 C 61 % 1031,2 hPa 0,0 l/m O-NO 1,00 h 589 W/m 17,6 km/h (3 Bft)
08.03.2014 13:00 12,3 C 58 % 1030,4 hPa 0,0 l/m O-NO 1,00 h 575 W/m 15,0 km/h (3 Bft)
08.03.2014 14:00 13,5 C 51 % 1029,8 hPa 0,0 l/m O-NO 1,00 h 522 W/m 16,6 km/h (3 Bft)
08.03.2014 15:00 13,8 C 45 % 1029,7 hPa 0,0 l/m O-NO 1,00 h 407 W/m 18,1 km/h (3 Bft)
08.03.2014 16:00 13,3 C 44 % 1029,7 hPa 0,0 l/m O-NO 1,00 h 260 W/m 17,7 km/h (3 Bft)
08.03.2014 17:00 12,1 C 47 % 1029,7 hPa 0,0 l/m O-NO 0,58 h 77 W/m 16,0 km/h (3 Bft)
08.03.2014 18:00 10,0 C 55 % 1030,1 hPa 0,0 l/m O-NO 0,08 h 8 W/m 5,5 km/h (1 Bft)
08.03.2014 19:00 8,5 C 60 % 1030,2 hPa 0,0 l/m NO 0,00 h 0 W/m 7,2 km/h (2 Bft)
08.03.2014 20:00 7,6 C 64 % 1030,1 hPa 0,0 l/m NO 0,00 h 0 W/m 9,4 km/h (2 Bft)
08.03.2014 21:00 7,3 C 65 % 1030,0 hPa 0,0 l/m NO 0,00 h 0 W/m 12,4 km/h (3 Bft)
08.03.2014 22:00 6,8 C 66 % 1029,7 hPa 0,0 l/m O-NO 0,00 h 0 W/m 9,9 km/h (2 Bft)
08.03.2014 23:00 5,2 C 72 % 1029,6 hPa 0,0 l/m O-NO 0,00 h 0 W/m 5,3 km/h (1 Bft)
09.03.2014 00:00 4,4 C 76 % 1029,4 hPa 0,0 l/m NO 0,00 h 0 W/m 4,3 km/h (1 Bft)
09.03.2014 01:00 3,6 C 78 % 1029,2 hPa 0,0 l/m N 0,00 h 0 W/m 8,2 km/h (2 Bft)
09.03.2014 02:00 2,3 C 83 % 1029,1 hPa 0,0 l/m N 0,00 h 0 W/m 7,7 km/h (2 Bft)
09.03.2014 03:00 1,6 C 86 % 1029,2 hPa 0,0 l/m N 0,00 h 0 W/m 6,8 km/h (2 Bft)
09.03.2014 04:00 1,2 C 89 % 1029,2 hPa 0,0 l/m N 0,00 h 0 W/m 5,1 km/h (1 Bft)
09.03.2014 05:00 1,2 C 89 % 1029,2 hPa 0,0 l/m N 0,00 h 0 W/m 7,0 km/h (2 Bft)
09.03.2014 06:00 0,6 C 90 % 1029,4 hPa 0,0 l/m N 0,00 h 6 W/m 6,5 km/h (2 Bft)
09.03.2014 07:00 0,8 C 91 % 1029,6 hPa 0,0 l/m N 0,00 h 42 W/m 7,4 km/h (2 Bft)
09.03.2014 08:00 2,4 C 87 % 1030,0 hPa 0,0 l/m N-NO 0,83 h 186 W/m 9,4 km/h (2 Bft)
09.03.2014 09:00 4,5 C 81 % 1029,8 hPa 0,0 l/m N-NO 1,00 h 355 W/m 8,6 km/h (2 Bft)
09.03.2014 10:00 7,2 C 71 % 1029,6 hPa 0,0 l/m N-NO 1,00 h 486 W/m 8,3 km/h (2 Bft)
09.03.2014 11:00 11,2 C 54 % 1029,1 hPa 0,0 l/m O-NO 1,00 h 603 W/m 13,7 km/h (3 Bft)
09.03.2014 12:00 13,7 C 43 % 1028,4 hPa 0,0 l/m O-NO 1,00 h 640 W/m 18,4 km/h (3 Bft)
09.03.2014 13:00 15,2 C 35 % 1027,7 hPa 0,0 l/m O 1,00 h 619 W/m 23,3 km/h (4 Bft)
09.03.2014 14:00 16,0 C 31 % 1027,2 hPa 0,0 l/m O-SO 1,00 h 553 W/m 21,7 km/h (4 Bft)
09.03.2014 15:00 16,1 C 31 % 1026,7 hPa 0,0 l/m O 1,00 h 441 W/m 19,3 km/h (3 Bft)
09.03.2014 16:00 15,8 C 32 % 1026,4 hPa 0,0 l/m O-NO 1,00 h 284 W/m 18,8 km/h (3 Bft)
09.03.2014 17:00 14,3 C 35 % 1026,2 hPa 0,0 l/m O-NO 0,58 h 80 W/m 16,9 km/h (3 Bft)
09.03.2014 18:00 12,0 C 40 % 1026,3 hPa 0,0 l/m O-NO 0,00 h 8 W/m 11,7 km/h (2 Bft)
09.03.2014 19:00 9,5 C 48 % 1026,3 hPa 0,0 l/m O-NO 0,00 h 0 W/m 5,3 km/h (1 Bft)
09.03.2014 20:00 8,4 C 50 % 1026,1 hPa 0,0 l/m NO 0,00 h 0 W/m 7,6 km/h (2 Bft)
09.03.2014 21:00 7,3 C 54 % 1025,8 hPa 0,0 l/m N 0,00 h 0 W/m 7,5 km/h (2 Bft)
09.03.2014 22:00 6,3 C 60 % 1025,7 hPa 0,0 l/m N 0,00 h 0 W/m 8,0 km/h (2 Bft)
09.03.2014 23:00 5,2 C 66 % 1025,2 hPa 0,0 l/m N-NO 0,00 h 0 W/m 9,8 km/h (2 Bft)
Min-Datum _ 03.03.14 09.03.14 03.03.14 - - - - 03.03.14
_ Min-Zeit 04:20 14:20 04:15 - - - - 00:00
Minimum _ -1,8 C 29 % 993,4 hPa - - - - 0,0 km/h (0 Bft)
Max-Datum _ 09.03.14 07.03.14 08.03.14 04.03.14 - 03.03.14 05.03.14 09.03.14
_ Max-Zeit 14:35 21:10 09:10 17:20 - 10:45 12:50 14:20
Maximum _ 16,2 C 100 % 1032,3 hPa 1,2 l/m - 0,08 h 770 W/m 32,2 km/h
O-SO (5 Bft)
Durchschnitt _ 4,4 C 85 % 1017,4 hPa #5,0 l/m SW #32:35 h 205 W/m 7,0 km/h (2 Bft)